sensor_id;sensor_type;location;lat;lon;timestamp;P1;durP1;ratioP1;P2;durP2;ratioP2
7199;SDS011;3641;49.082;8.200;2023-04-02T00:04:06;3.40;;;1.38;;
7199;SDS011;3641;49.082;8.200;2023-04-02T00:06:38;5.35;;;1.63;;
7199;SDS011;3641;49.082;8.200;2023-04-02T00:09:23;2.40;;;1.27;;
7199;SDS011;3641;49.082;8.200;2023-04-02T00:11:54;3.50;;;1.13;;
7199;SDS011;3641;49.082;8.200;2023-04-02T00:14:23;3.05;;;1.45;;
7199;SDS011;3641;49.082;8.200;2023-04-02T00:16:53;4.05;;;1.48;;
7199;SDS011;3641;49.082;8.200;2023-04-02T00:19:22;6.32;;;1.48;;
7199;SDS011;3641;49.082;8.200;2023-04-02T00:21:54;6.03;;;1.77;;
7199;SDS011;3641;49.082;8.200;2023-04-02T00:24:25;2.85;;;1.45;;
7199;SDS011;3641;49.082;8.200;2023-04-02T00:26:51;4.97;;;1.45;;
7199;SDS011;3641;49.082;8.200;2023-04-02T00:29:19;5.95;;;1.60;;
7199;SDS011;3641;49.082;8.200;2023-04-02T00:31:46;3.92;;;1.55;;
7199;SDS011;3641;49.082;8.200;2023-04-02T00:34:16;2.83;;;1.40;;
7199;SDS011;3641;49.082;8.200;2023-04-02T00:36:46;8.25;;;1.55;;
7199;SDS011;3641;49.082;8.200;2023-04-02T00:39:16;4.55;;;1.30;;
7199;SDS011;3641;49.082;8.200;2023-04-02T00:41:46;3.03;;;1.25;;
7199;SDS011;3641;49.082;8.200;2023-04-02T00:44:18;2.70;;;1.17;;
7199;SDS011;3641;49.082;8.200;2023-04-02T00:46:45;3.33;;;1.48;;
7199;SDS011;3641;49.082;8.200;2023-04-02T00:49:16;4.32;;;1.48;;
7199;SDS011;3641;49.082;8.200;2023-04-02T00:51:49;3.15;;;1.42;;
7199;SDS011;3641;49.082;8.200;2023-04-02T00:54:18;4.38;;;1.13;;
7199;SDS011;3641;49.082;8.200;2023-04-02T00:56:51;4.70;;;1.20;;
7199;SDS011;3641;49.082;8.200;2023-04-02T00:59:21;4.78;;;1.30;;
7199;SDS011;3641;49.082;8.200;2023-04-02T01:01:53;2.60;;;1.23;;
7199;SDS011;3641;49.082;8.200;2023-04-02T01:04:27;4.82;;;1.30;;
7199;SDS011;3641;49.082;8.200;2023-04-02T01:06:58;3.67;;;1.20;;
7199;SDS011;3641;49.082;8.200;2023-04-02T01:09:31;4.28;;;1.58;;
7199;SDS011;3641;49.082;8.200;2023-04-02T01:12:20;2.70;;;1.20;;
7199;SDS011;3641;49.082;8.200;2023-04-02T01:14:56;4.28;;;1.15;;
7199;SDS011;3641;49.082;8.200;2023-04-02T01:17:35;3.78;;;1.40;;
7199;SDS011;3641;49.082;8.200;2023-04-02T01:23:20;2.97;;;1.40;;
7199;SDS011;3641;49.082;8.200;2023-04-02T01:25:52;6.15;;;1.50;;
7199;SDS011;3641;49.082;8.200;2023-04-02T01:28:26;3.35;;;1.73;;
7199;SDS011;3641;49.082;8.200;2023-04-02T01:30:59;3.13;;;1.23;;
7199;SDS011;3641;49.082;8.200;2023-04-02T01:33:28;2.20;;;1.27;;
7199;SDS011;3641;49.082;8.200;2023-04-02T01:35:59;3.95;;;1.73;;
7199;SDS011;3641;49.082;8.200;2023-04-02T01:38:33;2.88;;;1.50;;
7199;SDS011;3641;49.082;8.200;2023-04-02T01:41:07;4.53;;;1.23;;
7199;SDS011;3641;49.082;8.200;2023-04-02T01:43:40;3.08;;;1.50;;
7199;SDS011;3641;49.082;8.200;2023-04-02T01:46:25;5.35;;;1.60;;
7199;SDS011;3641;49.082;8.200;2023-04-02T01:48:53;2.40;;;1.30;;
7199;SDS011;3641;49.082;8.200;2023-04-02T01:51:25;5.15;;;1.52;;
7199;SDS011;3641;49.082;8.200;2023-04-02T01:53:53;1.92;;;1.20;;
7199;SDS011;3641;49.082;8.200;2023-04-02T01:56:23;2.95;;;1.50;;
7199;SDS011;3641;49.082;8.200;2023-04-02T01:58:52;3.58;;;1.70;;
7199;SDS011;3641;49.082;8.200;2023-04-02T02:01:18;3.65;;;1.60;;
7199;SDS011;3641;49.082;8.200;2023-04-02T02:03:50;3.30;;;1.30;;
7199;SDS011;3641;49.082;8.200;2023-04-02T02:06:18;2.97;;;1.40;;
7199;SDS011;3641;49.082;8.200;2023-04-02T02:08:46;2.65;;;1.40;;
7199;SDS011;3641;49.082;8.200;2023-04-02T02:11:14;2.45;;;1.23;;
7199;SDS011;3641;49.082;8.200;2023-04-02T02:13:46;2.78;;;1.45;;
7199;SDS011;3641;49.082;8.200;2023-04-02T02:16:16;2.65;;;1.40;;
7199;SDS011;3641;49.082;8.200;2023-04-02T02:18:43;5.88;;;1.83;;
7199;SDS011;3641;49.082;8.200;2023-04-02T02:21:17;2.15;;;1.20;;
7199;SDS011;3641;49.082;8.200;2023-04-02T02:23:50;3.17;;;1.42;;
7199;SDS011;3641;49.082;8.200;2023-04-02T02:26:17;3.15;;;1.60;;
7199;SDS011;3641;49.082;8.200;2023-04-02T02:28:45;5.57;;;1.52;;
7199;SDS011;3641;49.082;8.200;2023-04-02T02:31:20;2.28;;;1.25;;
7199;SDS011;3641;49.082;8.200;2023-04-02T02:33:51;2.78;;;1.40;;
7199;SDS011;3641;49.082;8.200;2023-04-02T02:36:25;2.75;;;1.45;;
7199;SDS011;3641;49.082;8.200;2023-04-02T02:38:59;2.42;;;1.27;;
7199;SDS011;3641;49.082;8.200;2023-04-02T02:41:29;3.20;;;1.08;;
7199;SDS011;3641;49.082;8.200;2023-04-02T02:44:01;5.38;;;1.17;;
7199;SDS011;3641;49.082;8.200;2023-04-02T02:46:37;4.10;;;1.40;;
7199;SDS011;3641;49.082;8.200;2023-04-02T02:49:09;4.55;;;1.35;;
7199;SDS011;3641;49.082;8.200;2023-04-02T02:51:43;3.10;;;1.33;;
7199;SDS011;3641;49.082;8.200;2023-04-02T02:54:13;2.53;;;1.20;;
7199;SDS011;3641;49.082;8.200;2023-04-02T02:56:44;4.53;;;1.30;;
7199;SDS011;3641;49.082;8.200;2023-04-02T02:59:15;3.55;;;1.42;;
7199;SDS011;3641;49.082;8.200;2023-04-02T03:01:44;3.45;;;1.38;;
7199;SDS011;3641;49.082;8.200;2023-04-02T03:04:11;3.15;;;1.20;;
7199;SDS011;3641;49.082;8.200;2023-04-02T03:06:38;2.53;;;1.10;;
7199;SDS011;3641;49.082;8.200;2023-04-02T03:09:11;5.40;;;1.30;;
7199;SDS011;3641;49.082;8.200;2023-04-02T03:11:46;2.83;;;1.40;;
7199;SDS011;3641;49.082;8.200;2023-04-02T03:14:19;2.50;;;1.10;;
7199;SDS011;3641;49.082;8.200;2023-04-02T03:16:49;3.65;;;1.20;;
7199;SDS011;3641;49.082;8.200;2023-04-02T03:19:23;2.47;;;1.13;;
7199;SDS011;3641;49.082;8.200;2023-04-02T03:21:57;3.78;;;1.40;;
7199;SDS011;3641;49.082;8.200;2023-04-02T03:24:32;3.00;;;1.20;;
7199;SDS011;3641;49.082;8.200;2023-04-02T03:27:02;2.35;;;1.20;;
7199;SDS011;3641;49.082;8.200;2023-04-02T03:29:36;6.32;;;1.23;;
7199;SDS011;3641;49.082;8.200;2023-04-02T03:32:09;2.80;;;1.40;;
7199;SDS011;3641;49.082;8.200;2023-04-02T03:34:40;2.78;;;1.38;;
7199;SDS011;3641;49.082;8.200;2023-04-02T03:37:11;2.13;;;1.25;;
7199;SDS011;3641;49.082;8.200;2023-04-02T03:39:45;3.08;;;1.40;;
7199;SDS011;3641;49.082;8.200;2023-04-02T03:42:16;3.58;;;1.40;;
7199;SDS011;3641;49.082;8.200;2023-04-02T03:44:47;2.25;;;1.20;;
7199;SDS011;3641;49.082;8.200;2023-04-02T03:47:18;2.50;;;1.30;;
7199;SDS011;3641;49.082;8.200;2023-04-02T03:49:51;2.53;;;1.30;;
7199;SDS011;3641;49.082;8.200;2023-04-02T03:52:23;3.25;;;1.50;;
7199;SDS011;3641;49.082;8.200;2023-04-02T03:54:53;5.38;;;1.50;;
7199;SDS011;3641;49.082;8.200;2023-04-02T03:57:23;3.05;;;1.50;;
7199;SDS011;3641;49.082;8.200;2023-04-02T03:59:55;3.65;;;1.60;;
7199;SDS011;3641;49.082;8.200;2023-04-02T04:02:37;4.20;;;1.50;;
7199;SDS011;3641;49.082;8.200;2023-04-02T04:05:18;7.03;;;2.05;;
7199;SDS011;3641;49.082;8.200;2023-04-02T04:07:48;4.97;;;2.40;;
7199;SDS011;3641;49.082;8.200;2023-04-02T04:10:21;4.70;;;2.30;;
7199;SDS011;3641;49.082;8.200;2023-04-02T04:12:51;4.22;;;2.28;;
7199;SDS011;3641;49.082;8.200;2023-04-02T04:15:21;4.78;;;2.30;;
7199;SDS011;3641;49.082;8.200;2023-04-02T04:17:53;4.20;;;2.30;;
7199;SDS011;3641;49.082;8.200;2023-04-02T04:20:26;4.13;;;2.30;;
7199;SDS011;3641;49.082;8.200;2023-04-02T04:23:06;5.20;;;2.10;;
7199;SDS011;3641;49.082;8.200;2023-04-02T04:25:37;7.78;;;2.10;;
7199;SDS011;3641;49.082;8.200;2023-04-02T04:28:06;5.15;;;2.10;;
7199;SDS011;3641;49.082;8.200;2023-04-02T04:30:45;7.25;;;2.35;;
7199;SDS011;3641;49.082;8.200;2023-04-02T04:33:16;5.65;;;3.08;;
7199;SDS011;3641;49.082;8.200;2023-04-02T04:35:47;5.72;;;2.30;;
7199;SDS011;3641;49.082;8.200;2023-04-02T04:38:17;5.30;;;2.38;;
7199;SDS011;3641;49.082;8.200;2023-04-02T04:40:54;7.10;;;2.40;;
7199;SDS011;3641;49.082;8.200;2023-04-02T04:43:27;8.20;;;2.38;;
7199;SDS011;3641;49.082;8.200;2023-04-02T04:45:59;4.43;;;2.20;;
7199;SDS011;3641;49.082;8.200;2023-04-02T04:48:28;7.80;;;2.22;;
7199;SDS011;3641;49.082;8.200;2023-04-02T04:51:01;6.55;;;2.17;;
7199;SDS011;3641;49.082;8.200;2023-04-02T04:53:30;5.35;;;2.17;;
7199;SDS011;3641;49.082;8.200;2023-04-02T04:55:59;6.25;;;2.40;;
7199;SDS011;3641;49.082;8.200;2023-04-02T04:58:31;6.10;;;2.53;;
7199;SDS011;3641;49.082;8.200;2023-04-02T05:01:02;7.47;;;2.20;;
7199;SDS011;3641;49.082;8.200;2023-04-02T05:03:36;5.65;;;2.92;;
7199;SDS011;3641;49.082;8.200;2023-04-02T05:06:09;7.43;;;2.42;;
7199;SDS011;3641;49.082;8.200;2023-04-02T05:08:39;4.47;;;2.60;;
7199;SDS011;3641;49.082;8.200;2023-04-02T05:11:12;5.72;;;2.97;;
7199;SDS011;3641;49.082;8.200;2023-04-02T05:13:46;6.22;;;2.70;;
7199;SDS011;3641;49.082;8.200;2023-04-02T05:16:20;6.15;;;3.15;;
7199;SDS011;3641;49.082;8.200;2023-04-02T05:18:51;4.72;;;2.80;;
7199;SDS011;3641;49.082;8.200;2023-04-02T05:21:31;9.45;;;3.58;;
7199;SDS011;3641;49.082;8.200;2023-04-02T05:24:12;5.43;;;3.10;;
7199;SDS011;3641;49.082;8.200;2023-04-02T05:27:00;6.15;;;3.03;;
7199;SDS011;3641;49.082;8.200;2023-04-02T05:29:33;6.82;;;3.17;;
7199;SDS011;3641;49.082;8.200;2023-04-02T05:32:04;5.72;;;3.05;;
7199;SDS011;3641;49.082;8.200;2023-04-02T05:34:36;6.68;;;3.30;;
7199;SDS011;3641;49.082;8.200;2023-04-02T05:37:05;7.53;;;3.22;;
7199;SDS011;3641;49.082;8.200;2023-04-02T05:39:33;5.90;;;3.38;;
7199;SDS011;3641;49.082;8.200;2023-04-02T05:42:02;7.28;;;3.22;;
7199;SDS011;3641;49.082;8.200;2023-04-02T05:44:31;7.75;;;3.92;;
7199;SDS011;3641;49.082;8.200;2023-04-02T05:47:00;8.13;;;4.22;;
7199;SDS011;3641;49.082;8.200;2023-04-02T05:49:31;7.75;;;3.60;;
7199;SDS011;3641;49.082;8.200;2023-04-02T05:52:05;8.45;;;3.72;;
7199;SDS011;3641;49.082;8.200;2023-04-02T05:54:38;7.13;;;4.10;;
7199;SDS011;3641;49.082;8.200;2023-04-02T05:57:11;9.93;;;3.90;;
7199;SDS011;3641;49.082;8.200;2023-04-02T05:59:42;8.82;;;4.07;;
7199;SDS011;3641;49.082;8.200;2023-04-02T06:02:16;9.15;;;3.83;;
7199;SDS011;3641;49.082;8.200;2023-04-02T06:04:49;7.32;;;4.05;;
7199;SDS011;3641;49.082;8.200;2023-04-02T06:07:21;11.10;;;3.97;;
7199;SDS011;3641;49.082;8.200;2023-04-02T06:09:52;7.30;;;3.80;;
7199;SDS011;3641;49.082;8.200;2023-04-02T06:12:26;6.20;;;3.70;;
7199;SDS011;3641;49.082;8.200;2023-04-02T06:14:56;6.47;;;3.58;;
7199;SDS011;3641;49.082;8.200;2023-04-02T06:17:23;8.80;;;3.65;;
7199;SDS011;3641;49.082;8.200;2023-04-02T06:19:51;9.25;;;3.90;;
7199;SDS011;3641;49.082;8.200;2023-04-02T06:22:25;5.72;;;3.10;;
7199;SDS011;3641;49.082;8.200;2023-04-02T06:24:58;7.75;;;3.38;;
7199;SDS011;3641;49.082;8.200;2023-04-02T06:27:30;9.20;;;3.88;;
7199;SDS011;3641;49.082;8.200;2023-04-02T06:30:00;8.77;;;3.70;;
7199;SDS011;3641;49.082;8.200;2023-04-02T06:32:31;7.78;;;3.65;;
7199;SDS011;3641;49.082;8.200;2023-04-02T06:34:57;6.90;;;3.42;;
7199;SDS011;3641;49.082;8.200;2023-04-02T06:37:25;8.32;;;3.50;;
7199;SDS011;3641;49.082;8.200;2023-04-02T06:39:57;7.57;;;4.15;;
7199;SDS011;3641;49.082;8.200;2023-04-02T06:42:26;7.38;;;3.97;;
7199;SDS011;3641;49.082;8.200;2023-04-02T06:44:57;7.45;;;4.10;;
7199;SDS011;3641;49.082;8.200;2023-04-02T06:47:28;8.93;;;3.80;;
7199;SDS011;3641;49.082;8.200;2023-04-02T06:50:00;6.20;;;3.50;;
7199;SDS011;3641;49.082;8.200;2023-04-02T06:52:33;6.57;;;3.83;;
7199;SDS011;3641;49.082;8.200;2023-04-02T06:55:04;7.90;;;4.03;;
7199;SDS011;3641;49.082;8.200;2023-04-02T06:57:46;8.18;;;4.40;;
7199;SDS011;3641;49.082;8.200;2023-04-02T07:00:19;9.13;;;4.75;;
7199;SDS011;3641;49.082;8.200;2023-04-02T07:02:50;11.50;;;4.70;;
7199;SDS011;3641;49.082;8.200;2023-04-02T07:05:20;10.98;;;5.28;;
7199;SDS011;3641;49.082;8.200;2023-04-02T07:07:47;9.82;;;4.70;;
7199;SDS011;3641;49.082;8.200;2023-04-02T07:10:13;8.25;;;4.80;;
7199;SDS011;3641;49.082;8.200;2023-04-02T07:12:40;8.05;;;4.40;;
7199;SDS011;3641;49.082;8.200;2023-04-02T07:15:06;5.57;;;3.78;;
7199;SDS011;3641;49.082;8.200;2023-04-02T07:17:37;6.72;;;4.03;;
7199;SDS011;3641;49.082;8.200;2023-04-02T07:20:05;6.60;;;3.92;;
7199;SDS011;3641;49.082;8.200;2023-04-02T07:22:32;7.75;;;3.95;;
7199;SDS011;3641;49.082;8.200;2023-04-02T07:24:58;6.78;;;4.38;;
7199;SDS011;3641;49.082;8.200;2023-04-02T07:27:25;6.57;;;3.92;;
7199;SDS011;3641;49.082;8.200;2023-04-02T07:29:52;6.15;;;4.07;;
7199;SDS011;3641;49.082;8.200;2023-04-02T07:32:18;7.45;;;4.25;;
7199;SDS011;3641;49.082;8.200;2023-04-02T07:34:46;6.65;;;3.80;;
7199;SDS011;3641;49.082;8.200;2023-04-02T07:37:13;6.15;;;3.63;;
7199;SDS011;3641;49.082;8.200;2023-04-02T07:39:39;7.70;;;3.83;;
7199;SDS011;3641;49.082;8.200;2023-04-02T07:42:06;7.65;;;3.75;;
7199;SDS011;3641;49.082;8.200;2023-04-02T07:44:33;6.00;;;3.90;;
7199;SDS011;3641;49.082;8.200;2023-04-02T07:46:59;7.18;;;3.80;;
7199;SDS011;3641;49.082;8.200;2023-04-02T07:49:26;6.25;;;3.97;;
7199;SDS011;3641;49.082;8.200;2023-04-02T07:51:54;5.05;;;3.70;;
7199;SDS011;3641;49.082;8.200;2023-04-02T07:54:20;6.22;;;3.42;;
7199;SDS011;3641;49.082;8.200;2023-04-02T07:56:47;6.22;;;3.70;;
7199;SDS011;3641;49.082;8.200;2023-04-02T07:59:13;5.53;;;3.78;;
7199;SDS011;3641;49.082;8.200;2023-04-02T08:01:40;6.75;;;3.50;;
7199;SDS011;3641;49.082;8.200;2023-04-02T08:04:12;4.45;;;3.08;;
7199;SDS011;3641;49.082;8.200;2023-04-02T08:06:42;4.30;;;2.67;;
7199;SDS011;3641;49.082;8.200;2023-04-02T08:09:09;6.15;;;3.42;;
7199;SDS011;3641;49.082;8.200;2023-04-02T08:11:36;4.32;;;2.70;;
7199;SDS011;3641;49.082;8.200;2023-04-02T08:14:02;5.28;;;2.75;;
7199;SDS011;3641;49.082;8.200;2023-04-02T08:16:41;5.50;;;2.60;;
7199;SDS011;3641;49.082;8.200;2023-04-02T08:19:08;5.13;;;2.90;;
7199;SDS011;3641;49.082;8.200;2023-04-02T08:21:35;4.25;;;2.40;;
7199;SDS011;3641;49.082;8.200;2023-04-02T08:24:01;3.60;;;2.55;;
7199;SDS011;3641;49.082;8.200;2023-04-02T08:26:30;4.35;;;2.15;;
7199;SDS011;3641;49.082;8.200;2023-04-02T08:28:57;4.05;;;1.92;;
7199;SDS011;3641;49.082;8.200;2023-04-02T08:31:23;3.08;;;1.98;;
7199;SDS011;3641;49.082;8.200;2023-04-02T08:33:50;3.45;;;2.05;;
7199;SDS011;3641;49.082;8.200;2023-04-02T08:36:23;4.47;;;2.08;;
7199;SDS011;3641;49.082;8.200;2023-04-02T08:38:52;3.03;;;1.80;;
7199;SDS011;3641;49.082;8.200;2023-04-02T08:41:19;2.85;;;1.60;;
7199;SDS011;3641;49.082;8.200;2023-04-02T08:43:55;2.15;;;1.50;;
7199;SDS011;3641;49.082;8.200;2023-04-02T08:46:32;2.33;;;1.65;;
7199;SDS011;3641;49.082;8.200;2023-04-02T08:49:07;4.15;;;1.67;;
7199;SDS011;3641;49.082;8.200;2023-04-02T08:51:37;1.90;;;1.45;;
7199;SDS011;3641;49.082;8.200;2023-04-02T08:54:05;2.22;;;1.35;;
7199;SDS011;3641;49.082;8.200;2023-04-02T08:56:42;1.60;;;1.13;;
7199;SDS011;3641;49.082;8.200;2023-04-02T08:59:17;2.72;;;1.27;;
7199;SDS011;3641;49.082;8.200;2023-04-02T09:01:50;1.48;;;1.02;;
7199;SDS011;3641;49.082;8.200;2023-04-02T09:04:24;1.95;;;1.17;;
7199;SDS011;3641;49.082;8.200;2023-04-02T09:06:51;0.82;;;0.80;;
7199;SDS011;3641;49.082;8.200;2023-04-02T09:09:20;2.42;;;1.23;;
7199;SDS011;3641;49.082;8.200;2023-04-02T09:11:49;1.40;;;1.00;;
7199;SDS011;3641;49.082;8.200;2023-04-02T09:14:20;1.70;;;1.23;;
7199;SDS011;3641;49.082;8.200;2023-04-02T09:16:51;2.25;;;0.90;;
7199;SDS011;3641;49.082;8.200;2023-04-02T09:19:21;1.85;;;0.90;;
7199;SDS011;3641;49.082;8.200;2023-04-02T09:21:59;2.47;;;1.13;;
7199;SDS011;3641;49.082;8.200;2023-04-02T09:24:31;1.80;;;1.00;;
7199;SDS011;3641;49.082;8.200;2023-04-02T09:26:58;0.95;;;0.80;;
7199;SDS011;3641;49.082;8.200;2023-04-02T09:29:30;1.98;;;0.90;;
7199;SDS011;3641;49.082;8.200;2023-04-02T09:32:06;2.05;;;1.10;;
7199;SDS011;3641;49.082;8.200;2023-04-02T09:35:04;1.42;;;1.00;;
7199;SDS011;3641;49.082;8.200;2023-04-02T09:37:36;0.80;;;0.60;;
7199;SDS011;3641;49.082;8.200;2023-04-02T09:40:16;0.82;;;0.80;;
7199;SDS011;3641;49.082;8.200;2023-04-02T09:42:48;0.70;;;0.57;;
7199;SDS011;3641;49.082;8.200;2023-04-02T09:45:18;0.85;;;0.70;;
7199;SDS011;3641;49.082;8.200;2023-04-02T09:47:46;0.70;;;0.70;;
7199;SDS011;3641;49.082;8.200;2023-04-02T09:50:26;1.10;;;0.80;;
7199;SDS011;3641;49.082;8.200;2023-04-02T09:52:56;0.93;;;0.70;;
7199;SDS011;3641;49.082;8.200;2023-04-02T09:55:24;1.00;;;0.80;;
7199;SDS011;3641;49.082;8.200;2023-04-02T09:58:06;0.80;;;0.65;;
7199;SDS011;3641;49.082;8.200;2023-04-02T10:00:37;5.90;;;2.40;;
7199;SDS011;3641;49.082;8.200;2023-04-02T10:03:10;2.45;;;1.20;;
7199;SDS011;3641;49.082;8.200;2023-04-02T10:05:48;1.10;;;0.80;;
7199;SDS011;3641;49.082;8.200;2023-04-02T10:08:28;4.47;;;0.77;;
7199;SDS011;3641;49.082;8.200;2023-04-02T10:10:57;4.13;;;1.95;;
7199;SDS011;3641;49.082;8.200;2023-04-02T10:13:27;2.30;;;1.38;;
7199;SDS011;3641;49.082;8.200;2023-04-02T10:15:58;3.05;;;1.20;;
7199;SDS011;3641;49.082;8.200;2023-04-02T10:18:38;2.80;;;1.00;;
7199;SDS011;3641;49.082;8.200;2023-04-02T10:21:09;2.30;;;1.50;;
7199;SDS011;3641;49.082;8.200;2023-04-02T10:23:40;1.67;;;0.85;;
7199;SDS011;3641;49.082;8.200;2023-04-02T10:29:07;2.08;;;1.20;;
7199;SDS011;3641;49.082;8.200;2023-04-02T10:31:49;2.22;;;1.30;;
7199;SDS011;3641;49.082;8.200;2023-04-02T10:34:23;1.98;;;1.30;;
7199;SDS011;3641;49.082;8.200;2023-04-02T10:37:00;1.85;;;1.15;;
7199;SDS011;3641;49.082;8.200;2023-04-02T10:39:35;0.70;;;0.60;;
7199;SDS011;3641;49.082;8.200;2023-04-02T10:42:08;0.95;;;0.75;;
7199;SDS011;3641;49.082;8.200;2023-04-02T10:44:48;1.80;;;0.95;;
7199;SDS011;3641;49.082;8.200;2023-04-02T10:47:28;1.02;;;0.80;;
7199;SDS011;3641;49.082;8.200;2023-04-02T10:50:10;2.75;;;0.93;;
7199;SDS011;3641;49.082;8.200;2023-04-02T10:52:53;1.45;;;0.75;;
7199;SDS011;3641;49.082;8.200;2023-04-02T10:55:25;1.20;;;0.80;;
7199;SDS011;3641;49.082;8.200;2023-04-02T10:57:55;1.10;;;0.80;;
7199;SDS011;3641;49.082;8.200;2023-04-02T11:00:26;1.25;;;0.60;;
7199;SDS011;3641;49.082;8.200;2023-04-02T11:02:57;1.48;;;0.70;;
7199;SDS011;3641;49.082;8.200;2023-04-02T11:05:31;1.00;;;0.52;;
7199;SDS011;3641;49.082;8.200;2023-04-02T11:08:09;0.77;;;0.60;;
7199;SDS011;3641;49.082;8.200;2023-04-02T11:10:43;1.65;;;0.70;;
7199;SDS011;3641;49.082;8.200;2023-04-02T11:13:14;2.08;;;0.60;;
7199;SDS011;3641;49.082;8.200;2023-04-02T11:15:45;1.30;;;1.02;;
7199;SDS011;3641;49.082;8.200;2023-04-02T11:18:21;3.60;;;0.98;;
7199;SDS011;3641;49.082;8.200;2023-04-02T11:20:59;1.30;;;0.80;;
7199;SDS011;3641;49.082;8.200;2023-04-02T11:23:29;1.35;;;0.70;;
7199;SDS011;3641;49.082;8.200;2023-04-02T11:29:22;1.33;;;0.80;;
7199;SDS011;3641;49.082;8.200;2023-04-02T11:37:56;0.73;;;0.70;;
7199;SDS011;3641;49.082;8.200;2023-04-02T11:40:40;1.40;;;0.90;;
7199;SDS011;3641;49.082;8.200;2023-04-02T11:52:00;1.15;;;0.80;;
7199;SDS011;3641;49.082;8.200;2023-04-02T11:54:30;1.67;;;0.70;;
7199;SDS011;3641;49.082;8.200;2023-04-02T11:57:03;1.70;;;1.17;;
7199;SDS011;3641;49.082;8.200;2023-04-02T11:59:43;3.85;;;2.35;;
7199;SDS011;3641;49.082;8.200;2023-04-02T12:02:19;5.60;;;3.60;;
7199;SDS011;3641;49.082;8.200;2023-04-02T12:04:55;5.15;;;3.70;;
7199;SDS011;3641;49.082;8.200;2023-04-02T12:07:33;5.45;;;3.28;;
7199;SDS011;3641;49.082;8.200;2023-04-02T12:10:50;5.25;;;4.10;;
7199;SDS011;3641;49.082;8.200;2023-04-02T12:13:20;4.97;;;3.50;;
7199;SDS011;3641;49.082;8.200;2023-04-02T12:16:07;4.00;;;3.08;;
7199;SDS011;3641;49.082;8.200;2023-04-02T12:18:35;3.42;;;2.67;;
7199;SDS011;3641;49.082;8.200;2023-04-02T12:21:08;4.32;;;3.10;;
7199;SDS011;3641;49.082;8.200;2023-04-02T12:23:43;5.25;;;3.35;;
7199;SDS011;3641;49.082;8.200;2023-04-02T12:26:23;4.55;;;3.58;;
7199;SDS011;3641;49.082;8.200;2023-04-02T12:28:54;5.60;;;4.50;;
7199;SDS011;3641;49.082;8.200;2023-04-02T12:31:22;5.93;;;5.15;;
7199;SDS011;3641;49.082;8.200;2023-04-02T12:33:50;6.85;;;5.18;;
7199;SDS011;3641;49.082;8.200;2023-04-02T12:36:18;6.53;;;4.90;;
7199;SDS011;3641;49.082;8.200;2023-04-02T12:38:47;5.57;;;4.90;;
7199;SDS011;3641;49.082;8.200;2023-04-02T12:41:18;5.03;;;4.22;;
7199;SDS011;3641;49.082;8.200;2023-04-02T12:43:56;5.00;;;4.15;;
7199;SDS011;3641;49.082;8.200;2023-04-02T12:46:23;5.78;;;4.00;;
7199;SDS011;3641;49.082;8.200;2023-04-02T12:48:51;6.53;;;3.90;;
7199;SDS011;3641;49.082;8.200;2023-04-02T12:51:18;5.75;;;4.35;;
7199;SDS011;3641;49.082;8.200;2023-04-02T12:53:47;6.30;;;4.75;;
7199;SDS011;3641;49.082;8.200;2023-04-02T12:56:17;8.68;;;5.90;;
7199;SDS011;3641;49.082;8.200;2023-04-02T12:58:50;7.47;;;5.10;;
7199;SDS011;3641;49.082;8.200;2023-04-02T13:01:20;6.15;;;4.85;;
7199;SDS011;3641;49.082;8.200;2023-04-02T13:04:00;7.10;;;5.35;;
7199;SDS011;3641;49.082;8.200;2023-04-02T13:06:30;6.28;;;5.30;;
7199;SDS011;3641;49.082;8.200;2023-04-02T13:08:57;8.40;;;5.70;;
7199;SDS011;3641;49.082;8.200;2023-04-02T13:11:32;7.50;;;6.05;;
7199;SDS011;3641;49.082;8.200;2023-04-02T13:14:00;7.70;;;5.75;;
7199;SDS011;3641;49.082;8.200;2023-04-02T13:16:32;6.55;;;5.10;;
7199;SDS011;3641;49.082;8.200;2023-04-02T13:19:10;6.57;;;5.15;;
7199;SDS011;3641;49.082;8.200;2023-04-02T13:21:45;6.65;;;5.18;;
7199;SDS011;3641;49.082;8.200;2023-04-02T13:24:15;7.35;;;5.22;;
7199;SDS011;3641;49.082;8.200;2023-04-02T13:26:42;6.78;;;4.90;;
7199;SDS011;3641;49.082;8.200;2023-04-02T13:29:15;6.68;;;4.90;;
7199;SDS011;3641;49.082;8.200;2023-04-02T13:31:46;6.43;;;5.35;;
7199;SDS011;3641;49.082;8.200;2023-04-02T13:34:13;6.28;;;4.78;;
7199;SDS011;3641;49.082;8.200;2023-04-02T13:36:39;6.72;;;5.43;;
7199;SDS011;3641;49.082;8.200;2023-04-02T13:39:06;6.25;;;5.28;;
7199;SDS011;3641;49.082;8.200;2023-04-02T13:41:33;6.47;;;5.40;;
7199;SDS011;3641;49.082;8.200;2023-04-02T13:44:04;9.48;;;6.47;;
7199;SDS011;3641;49.082;8.200;2023-04-02T13:46:31;6.40;;;4.72;;
7199;SDS011;3641;49.082;8.200;2023-04-02T13:49:00;6.68;;;5.00;;
7199;SDS011;3641;49.082;8.200;2023-04-02T13:51:30;8.43;;;5.25;;
7199;SDS011;3641;49.082;8.200;2023-04-02T13:54:01;5.00;;;4.20;;
7199;SDS011;3641;49.082;8.200;2023-04-02T13:56:27;5.22;;;4.25;;
7199;SDS011;3641;49.082;8.200;2023-04-02T13:58:55;5.97;;;4.40;;
7199;SDS011;3641;49.082;8.200;2023-04-02T14:01:21;6.47;;;3.78;;
7199;SDS011;3641;49.082;8.200;2023-04-02T14:03:50;3.95;;;3.28;;
7199;SDS011;3641;49.082;8.200;2023-04-02T14:06:20;4.80;;;3.33;;
7199;SDS011;3641;49.082;8.200;2023-04-02T14:08:55;5.07;;;3.67;;
7199;SDS011;3641;49.082;8.200;2023-04-02T14:11:30;5.05;;;4.03;;
7199;SDS011;3641;49.082;8.200;2023-04-02T14:14:11;7.57;;;4.60;;
7199;SDS011;3641;49.082;8.200;2023-04-02T14:16:55;9.30;;;4.47;;
7199;SDS011;3641;49.082;8.200;2023-04-02T14:19:34;7.35;;;4.53;;
7199;SDS011;3641;49.082;8.200;2023-04-02T14:22:17;7.05;;;4.90;;
7199;SDS011;3641;49.082;8.200;2023-04-02T14:24:58;6.78;;;4.55;;
7199;SDS011;3641;49.082;8.200;2023-04-02T14:27:34;7.28;;;4.20;;
7199;SDS011;3641;49.082;8.200;2023-04-02T14:30:10;6.10;;;4.70;;
7199;SDS011;3641;49.082;8.200;2023-04-02T14:32:42;5.90;;;4.30;;
7199;SDS011;3641;49.082;8.200;2023-04-02T14:35:16;5.43;;;4.25;;
7199;SDS011;3641;49.082;8.200;2023-04-02T14:37:51;6.70;;;4.30;;
7199;SDS011;3641;49.082;8.200;2023-04-02T14:40:25;5.68;;;4.57;;
7199;SDS011;3641;49.082;8.200;2023-04-02T14:42:56;5.47;;;4.47;;
7199;SDS011;3641;49.082;8.200;2023-04-02T14:45:29;7.05;;;5.03;;
7199;SDS011;3641;49.082;8.200;2023-04-02T14:48:05;7.40;;;4.72;;
7199;SDS011;3641;49.082;8.200;2023-04-02T14:50:45;6.88;;;4.90;;
7199;SDS011;3641;49.082;8.200;2023-04-02T14:53:14;9.32;;;5.00;;
7199;SDS011;3641;49.082;8.200;2023-04-02T14:55:48;6.78;;;5.25;;
7199;SDS011;3641;49.082;8.200;2023-04-02T14:58:17;7.68;;;5.03;;
7199;SDS011;3641;49.082;8.200;2023-04-02T15:00:50;8.50;;;5.40;;
7199;SDS011;3641;49.082;8.200;2023-04-02T15:03:22;6.75;;;4.88;;
7199;SDS011;3641;49.082;8.200;2023-04-02T15:05:54;7.30;;;5.20;;
7199;SDS011;3641;49.082;8.200;2023-04-02T15:08:25;6.15;;;4.72;;
7199;SDS011;3641;49.082;8.200;2023-04-02T15:10:58;10.00;;;6.07;;
7199;SDS011;3641;49.082;8.200;2023-04-02T15:13:29;8.15;;;4.90;;
7199;SDS011;3641;49.082;8.200;2023-04-02T15:16:03;6.68;;;4.70;;
7199;SDS011;3641;49.082;8.200;2023-04-02T15:18:37;6.60;;;4.78;;
7199;SDS011;3641;49.082;8.200;2023-04-02T15:21:07;9.75;;;5.03;;
7199;SDS011;3641;49.082;8.200;2023-04-02T15:23:50;6.50;;;4.90;;
7199;SDS011;3641;49.082;8.200;2023-04-02T15:26:27;7.00;;;4.75;;
7199;SDS011;3641;49.082;8.200;2023-04-02T15:29:02;7.75;;;4.90;;
7199;SDS011;3641;49.082;8.200;2023-04-02T15:31:38;6.35;;;4.90;;
7199;SDS011;3641;49.082;8.200;2023-04-02T15:34:15;6.78;;;4.75;;
7199;SDS011;3641;49.082;8.200;2023-04-02T15:36:54;6.32;;;4.55;;
7199;SDS011;3641;49.082;8.200;2023-04-02T15:39:33;6.22;;;4.45;;
7199;SDS011;3641;49.082;8.200;2023-04-02T15:42:12;8.27;;;4.95;;
7199;SDS011;3641;49.082;8.200;2023-04-02T15:44:44;8.10;;;5.03;;
7199;SDS011;3641;49.082;8.200;2023-04-02T15:47:19;7.30;;;5.00;;
7199;SDS011;3641;49.082;8.200;2023-04-02T15:49:55;7.90;;;4.80;;
7199;SDS011;3641;49.082;8.200;2023-04-02T15:52:33;7.38;;;4.70;;
7199;SDS011;3641;49.082;8.200;2023-04-02T15:55:15;7.68;;;5.15;;
7199;SDS011;3641;49.082;8.200;2023-04-02T15:58:04;7.43;;;4.65;;
7199;SDS011;3641;49.082;8.200;2023-04-02T16:00:45;9.00;;;5.07;;
7199;SDS011;3641;49.082;8.200;2023-04-02T16:06:24;10.27;;;6.60;;
7199;SDS011;3641;49.082;8.200;2023-04-02T16:09:05;14.38;;;8.63;;
7199;SDS011;3641;49.082;8.200;2023-04-02T16:11:42;10.63;;;6.82;;
7199;SDS011;3641;49.082;8.200;2023-04-02T16:14:13;12.35;;;7.35;;
7199;SDS011;3641;49.082;8.200;2023-04-02T16:16:46;10.43;;;6.95;;